Terminal Aerodrome Forecast
Issued by NWS Cleveland, OH

Home | Current Version | Previous Version | Text Only | Print | Product List | Glossary On
Versions: 1 2 3 4 5 6 7 8 9 10 11 12 13 14 15 16 17 18 19 20 21 22
195
FTUS41 KCLE 300532
TAFERI
TAF
KERI 300532Z 3006/3106 09012KT P6SM OVC120
     FM301600 10014G22KT P6SM VCSH SCT035 OVC050
     FM301800 09015G25KT 5SM -SHRA BR SCT015 OVC025
     FM302300 11014G24KT P6SM VCSH SCT020 OVC030
     FM310200 13014G24KT 5SM -SHRA BR OVC015 PROB30 3102/3106 1SM
      TSRA BR OVC008CB=

USA.gov is the U.S. government's official web portal to all federal, state and local government web resources and services.